createdAt,value
2023-02-15T00:02:16.253Z,41.33
2023-02-15T00:07:20.035Z,38.67
2023-02-15T00:12:21.739Z,39.13
2023-02-15T00:17:23.486Z,35.80
2023-02-15T00:22:26.019Z,34.20
2023-02-15T00:27:27.682Z,36.90
2023-02-15T00:32:29.359Z,38.47
2023-02-15T00:37:31.104Z,34.53
2023-02-15T00:42:32.772Z,35.93
2023-02-15T00:47:34.450Z,32.87
2023-02-15T00:52:36.213Z,33.80
2023-02-15T00:57:37.878Z,37.53
2023-02-15T01:02:39.522Z,70.27
2023-02-15T01:07:41.184Z,36.63
2023-02-15T01:12:43.164Z,48.10
2023-02-15T01:17:50.467Z,38.90
2023-02-15T01:22:53.195Z,35.77
2023-02-15T01:27:54.890Z,35.03
2023-02-15T01:32:56.749Z,56.70
2023-02-15T01:37:58.552Z,64.57
2023-02-15T01:43:00.221Z,38.60
2023-02-15T01:48:09.240Z,35.83
2023-02-15T01:53:24.964Z,33.90
2023-02-15T01:58:30.079Z,34.70
2023-02-15T02:04:14.387Z,39.33
2023-02-15T02:09:16.594Z,55.97
2023-02-15T02:14:19.210Z,82.63
2023-02-15T02:19:41.141Z,101.57
2023-02-15T02:25:23.789Z,55.73
2023-02-15T02:30:47.159Z,36.93
2023-02-15T02:36:01.560Z,71.03
2023-02-15T02:41:28.979Z,60.43
2023-02-15T02:46:48.110Z,58.47
2023-02-15T02:51:59.878Z,98.07
2023-02-15T02:57:07.266Z,101.20
2023-02-15T03:02:14.692Z,59.07
2023-02-15T03:07:23.088Z,93.90
2023-02-15T03:12:30.851Z,101.03
2023-02-15T03:17:36.514Z,119.93
2023-02-15T03:22:45.497Z,96.17
2023-02-15T03:27:50.670Z,108.17
2023-02-15T03:32:53.841Z,71.80
2023-02-15T03:38:00.426Z,67.53
2023-02-15T03:43:33.551Z,93.17
2023-02-15T03:48:42.769Z,86.57
2023-02-15T03:53:47.460Z,63.20
2023-02-15T03:59:07.668Z,102.20
2023-02-15T04:04:25.517Z,42.73
2023-02-15T04:09:45.740Z,63.40
2023-02-15T04:15:06.301Z,52.70
2023-02-15T04:20:28.465Z,52.80
2023-02-15T04:25:30.294Z,65.97
2023-02-15T04:30:31.995Z,48.27
2023-02-15T04:35:34.472Z,48.93
2023-02-15T04:40:36.188Z,55.53
2023-02-15T04:45:37.875Z,35.50
2023-02-15T04:50:39.533Z,33.60
2023-02-15T04:55:41.743Z,29.00
2023-02-15T05:00:43.428Z,28.40
2023-02-15T05:05:45.174Z,27.30
2023-02-15T05:10:49.582Z,28.83
2023-02-15T05:15:52.601Z,33.27
2023-02-15T05:20:54.392Z,28.77
2023-02-15T05:26:14.962Z,29.23
2023-02-15T05:31:20.709Z,32.60
2023-02-15T05:36:22.574Z,29.60
2023-02-15T05:41:25.093Z,27.27
2023-02-15T05:46:26.851Z,32.33
2023-02-15T05:51:28.600Z,29.40
2023-02-15T05:56:30.232Z,29.87
2023-02-15T06:01:31.894Z,30.93
2023-02-15T06:06:35.423Z,27.73
2023-02-15T06:11:37.084Z,31.87
2023-02-15T06:16:38.818Z,27.00
2023-02-15T06:21:41.628Z,33.60
2023-02-15T06:26:43.306Z,32.37
2023-02-15T06:31:45.050Z,60.20
2023-02-15T06:36:46.845Z,38.07
2023-02-15T06:41:48.521Z,35.63
2023-02-15T06:46:50.416Z,39.07
2023-02-15T06:51:52.081Z,39.30
2023-02-15T06:56:53.754Z,37.83
2023-02-15T07:01:55.480Z,35.33
2023-02-15T07:06:57.158Z,34.87
2023-02-15T07:12:17.558Z,36.40
2023-02-15T07:17:34.978Z,38.27
2023-02-15T07:22:38.087Z,33.10
2023-02-15T07:27:39.935Z,36.00
2023-02-15T07:33:04.634Z,47.63
2023-02-15T07:38:06.878Z,33.40
2023-02-15T07:43:08.545Z,40.17
2023-02-15T07:48:10.516Z,58.93
2023-02-15T07:53:12.230Z,78.87
2023-02-15T07:58:13.987Z,64.27
2023-02-15T08:03:15.854Z,83.77
2023-02-15T08:08:32.685Z,40.70
2023-02-15T08:13:34.331Z,37.47
2023-02-15T08:18:36.058Z,35.40
2023-02-15T08:23:37.711Z,32.00
2023-02-15T08:28:40.202Z,33.60
2023-02-15T08:33:43.627Z,35.83
2023-02-15T08:38:45.475Z,62.27
2023-02-15T08:43:50.220Z,38.63
2023-02-15T08:48:52.241Z,35.40
2023-02-15T08:53:55.862Z,40.57
2023-02-15T08:58:58.005Z,33.50
2023-02-15T09:04:06.352Z,36.23
2023-02-15T09:09:09.369Z,34.37
2023-02-15T09:14:16.669Z,37.77
2023-02-15T09:19:20.108Z,34.20
2023-02-15T09:24:21.884Z,46.13
2023-02-15T09:29:23.877Z,44.10
2023-02-15T09:34:25.599Z,46.43
2023-02-15T09:39:30.523Z,42.30
2023-02-15T09:44:35.207Z,39.50
2023-02-15T09:50:00.401Z,37.90
2023-02-15T09:55:35.945Z,39.67
2023-02-15T10:01:02.855Z,36.07
2023-02-15T10:06:16.998Z,40.30
2023-02-15T10:11:40.101Z,37.13
2023-02-15T10:16:58.456Z,37.33
2023-02-15T10:22:16.360Z,33.07
2023-02-15T10:27:21.980Z,33.77
2023-02-15T10:32:30.313Z,32.00
2023-02-15T10:37:47.377Z,25.53
2023-02-15T10:42:54.978Z,25.43
2023-02-15T10:48:11.574Z,24.37
2023-02-15T10:53:41.079Z,25.60
2023-02-15T10:58:42.804Z,25.27
2023-02-15T11:04:29.089Z,22.57
2023-02-15T11:09:41.852Z,24.27
2023-02-15T11:14:55.177Z,22.43
2023-02-15T11:20:10.450Z,23.67
2023-02-15T11:25:35.211Z,27.60
2023-02-15T11:30:45.784Z,22.77
2023-02-15T11:36:00.460Z,26.73
2023-02-15T11:41:25.325Z,27.83
2023-02-15T11:46:27.135Z,27.37
2023-02-15T11:51:29.898Z,28.33
2023-02-15T11:56:34.194Z,30.57
2023-02-15T12:01:45.606Z,30.23
2023-02-15T12:07:08.854Z,34.03
2023-02-15T12:12:30.924Z,33.40
2023-02-15T12:17:37.790Z,30.37
2023-02-15T12:22:46.266Z,30.30
2023-02-15T12:27:49.054Z,32.20
2023-02-15T12:32:57.308Z,30.53
2023-02-15T12:38:10.005Z,26.63
2023-02-15T12:43:32.795Z,24.30
2023-02-15T12:48:40.650Z,25.93
2023-02-15T12:53:45.063Z,26.00
2023-02-15T12:58:47.027Z,23.60
2023-02-15T13:04:07.512Z,24.10
2023-02-15T13:09:39.555Z,26.05
2023-02-15T13:14:46.517Z,21.33
2023-02-15T13:19:52.868Z,26.17
2023-02-15T13:24:58.541Z,23.45
2023-02-15T13:30:04.371Z,26.40
2023-02-15T13:35:09.465Z,26.65
2023-02-15T13:40:19.263Z,25.25
2023-02-15T13:45:31.904Z,23.63
2023-02-15T13:50:44.639Z,22.85
2023-02-15T13:55:55.427Z,22.00
2023-02-15T14:01:02.311Z,22.47
2023-02-15T14:06:45.384Z,24.00
2023-02-15T14:12:24.479Z,22.33
2023-02-15T14:17:32.471Z,26.37
2023-02-15T14:22:41.880Z,23.97
2023-02-15T14:28:15.708Z,25.30
2023-02-15T14:33:39.272Z,23.67
2023-02-15T14:38:54.637Z,24.20
2023-02-15T14:44:17.497Z,26.17
2023-02-15T14:49:36.352Z,25.07
2023-02-15T14:54:37.993Z,29.70
2023-02-15T14:59:45.848Z,27.53
2023-02-15T15:04:59.751Z,27.13
2023-02-15T15:10:27.485Z,29.87
2023-02-15T15:15:32.345Z,28.23
2023-02-15T15:20:41.869Z,28.97
2023-02-15T15:25:55.370Z,34.20
2023-02-15T15:31:00.559Z,30.47
2023-02-15T15:36:18.017Z,32.20
2023-02-15T15:41:45.171Z,32.33
2023-02-15T15:47:13.429Z,30.73
2023-02-15T15:52:18.058Z,29.37
2023-02-15T15:57:43.802Z,30.93
2023-02-15T16:02:51.997Z,34.37
2023-02-15T16:07:53.767Z,29.87
2023-02-15T16:12:56.071Z,31.13
2023-02-15T16:17:59.517Z,31.00
2023-02-15T16:23:39.739Z,40.27
2023-02-15T16:28:48.221Z,43.57
2023-02-15T16:33:54.440Z,45.97
2023-02-15T16:38:56.052Z,45.27
2023-02-15T16:44:03.971Z,46.50
2023-02-15T16:49:16.344Z,37.93
2023-02-15T16:54:23.480Z,42.90
2023-02-15T16:59:40.649Z,45.23
2023-02-15T17:04:43.267Z,44.00
2023-02-15T17:09:53.612Z,46.40
2023-02-15T17:14:56.146Z,42.60
2023-02-15T17:19:58.041Z,45.90
2023-02-15T17:25:02.343Z,47.83
2023-02-15T17:30:15.624Z,43.97
2023-02-15T17:35:21.908Z,56.77
2023-02-15T17:40:29.485Z,55.90
2023-02-15T17:45:38.654Z,46.43
2023-02-15T17:50:40.862Z,46.60
2023-02-15T17:55:43.591Z,37.07
2023-02-15T18:01:18.514Z,43.90
2023-02-15T18:06:38.836Z,40.83
2023-02-15T18:11:40.590Z,40.70
2023-02-15T18:16:45.536Z,46.00
2023-02-15T18:21:47.870Z,44.70
2023-02-15T18:26:49.650Z,40.77
2023-02-15T18:31:55.973Z,50.67
2023-02-15T18:36:59.258Z,45.97
2023-02-15T18:42:01.313Z,29.63
2023-02-15T18:47:03.038Z,29.70
2023-02-15T18:52:04.922Z,31.87
2023-02-15T18:57:10.384Z,34.63
2023-02-15T19:02:14.275Z,38.23
2023-02-15T19:07:26.111Z,31.33
2023-02-15T19:12:31.210Z,35.87
2023-02-15T19:17:32.862Z,29.50
2023-02-15T19:22:34.860Z,30.43
2023-02-15T19:27:36.964Z,25.73
2023-02-15T19:32:38.737Z,26.93
2023-02-15T19:37:43.644Z,27.37
2023-02-15T19:42:45.339Z,23.97
2023-02-15T19:47:49.982Z,21.30
2023-02-15T19:52:52.012Z,29.10
2023-02-15T19:57:55.320Z,27.63
2023-02-15T20:02:59.274Z,25.80
2023-02-15T20:08:03.963Z,31.03
2023-02-15T20:13:05.687Z,46.07
2023-02-15T20:18:08.134Z,38.07
2023-02-15T20:23:31.924Z,31.47
2023-02-15T20:28:33.601Z,29.53
2023-02-15T20:33:35.248Z,39.10
2023-02-15T20:38:36.944Z,34.90
2023-02-15T20:43:39.447Z,29.60
2023-02-15T20:48:41.190Z,22.67
2023-02-15T20:53:42.877Z,37.93
2023-02-15T20:58:44.605Z,37.40
2023-02-15T21:03:47.295Z,26.90
2023-02-15T21:08:48.990Z,19.73
2023-02-15T21:13:51.148Z,19.43
2023-02-15T21:18:52.850Z,20.53
2023-02-15T21:23:54.660Z,22.63
2023-02-15T21:28:56.842Z,22.00
2023-02-15T21:33:58.486Z,21.73
2023-02-15T21:39:00.526Z,18.90
2023-02-15T21:44:21.340Z,18.97
2023-02-15T21:49:23.099Z,22.37
2023-02-15T21:54:26.270Z,22.40
2023-02-15T21:59:28.006Z,21.30
2023-02-15T22:04:30.779Z,19.67
2023-02-15T22:09:38.004Z,27.03
2023-02-15T22:14:41.465Z,20.20
2023-02-15T22:19:44.532Z,21.70
2023-02-15T22:24:46.667Z,22.73
2023-02-15T22:29:49.694Z,23.03
2023-02-15T22:34:52.791Z,19.53
2023-02-15T22:39:54.612Z,30.37
2023-02-15T22:44:57.845Z,23.53
2023-02-15T22:49:59.481Z,84.97
2023-02-15T22:55:01.118Z,40.63
2023-02-15T23:00:03.843Z,22.53
2023-02-15T23:05:05.764Z,25.33
2023-02-15T23:10:21.023Z,19.73
2023-02-15T23:15:22.738Z,18.77
2023-02-15T23:20:25.506Z,19.80
2023-02-15T23:25:28.102Z,19.23
2023-02-15T23:30:29.994Z,19.77
2023-02-15T23:35:31.674Z,18.50
2023-02-15T23:40:51.817Z,18.83
2023-02-15T23:45:53.570Z,23.50
2023-02-15T23:50:55.263Z,24.43
2023-02-15T23:55:57.833Z,23.60
